sensor_id;sensor_type;location;lat;lon;timestamp;P1;durP1;ratioP1;P2;durP2;ratioP2
3307;SDS011;1666;48.898;9.182;2023-06-24T00:01:37;6.10;;;4.80;;
3307;SDS011;1666;48.898;9.182;2023-06-24T00:04:12;7.20;;;4.22;;
3307;SDS011;1666;48.898;9.182;2023-06-24T00:06:45;5.80;;;4.40;;
3307;SDS011;1666;48.898;9.182;2023-06-24T00:09:15;5.57;;;4.60;;
3307;SDS011;1666;48.898;9.182;2023-06-24T00:11:46;5.88;;;4.22;;
3307;SDS011;1666;48.898;9.182;2023-06-24T00:14:16;6.70;;;4.57;;
3307;SDS011;1666;48.898;9.182;2023-06-24T00:16:47;7.00;;;4.40;;
3307;SDS011;1666;48.898;9.182;2023-06-24T00:19:21;5.47;;;4.55;;
3307;SDS011;1666;48.898;9.182;2023-06-24T00:21:53;5.70;;;4.80;;
3307;SDS011;1666;48.898;9.182;2023-06-24T00:24:23;5.47;;;4.32;;
3307;SDS011;1666;48.898;9.182;2023-06-24T00:26:53;5.78;;;4.55;;
3307;SDS011;1666;48.898;9.182;2023-06-24T00:29:23;5.30;;;4.50;;
3307;SDS011;1666;48.898;9.182;2023-06-24T00:31:53;5.53;;;4.35;;
3307;SDS011;1666;48.898;9.182;2023-06-24T00:34:26;6.60;;;5.18;;
3307;SDS011;1666;48.898;9.182;2023-06-24T00:36:56;7.45;;;5.07;;
3307;SDS011;1666;48.898;9.182;2023-06-24T00:39:26;6.20;;;5.10;;
3307;SDS011;1666;48.898;9.182;2023-06-24T00:41:57;5.65;;;4.82;;
3307;SDS011;1666;48.898;9.182;2023-06-24T00:44:27;7.80;;;4.45;;
3307;SDS011;1666;48.898;9.182;2023-06-24T00:46:57;5.28;;;4.70;;
3307;SDS011;1666;48.898;9.182;2023-06-24T00:49:31;6.10;;;4.85;;
3307;SDS011;1666;48.898;9.182;2023-06-24T00:52:01;5.13;;;4.20;;
3307;SDS011;1666;48.898;9.182;2023-06-24T00:54:31;6.68;;;4.85;;
3307;SDS011;1666;48.898;9.182;2023-06-24T00:57:01;10.30;;;5.18;;
3307;SDS011;1666;48.898;9.182;2023-06-24T00:59:31;5.63;;;4.30;;
3307;SDS011;1666;48.898;9.182;2023-06-24T01:02:01;5.10;;;4.07;;
3307;SDS011;1666;48.898;9.182;2023-06-24T01:04:34;5.65;;;4.05;;
3307;SDS011;1666;48.898;9.182;2023-06-24T01:07:05;5.13;;;4.33;;
3307;SDS011;1666;48.898;9.182;2023-06-24T01:09:35;6.07;;;4.95;;
3307;SDS011;1666;48.898;9.182;2023-06-24T01:12:05;6.65;;;4.43;;
3307;SDS011;1666;48.898;9.182;2023-06-24T01:14:36;6.95;;;4.63;;
3307;SDS011;1666;48.898;9.182;2023-06-24T01:17:08;4.88;;;4.25;;
3307;SDS011;1666;48.898;9.182;2023-06-24T01:19:53;6.25;;;4.40;;
3307;SDS011;1666;48.898;9.182;2023-06-24T01:23:06;5.80;;;4.43;;
3307;SDS011;1666;48.898;9.182;2023-06-24T01:29:04;6.18;;;4.40;;
3307;SDS011;1666;48.898;9.182;2023-06-24T01:31:53;6.32;;;4.50;;
3307;SDS011;1666;48.898;9.182;2023-06-24T01:34:29;7.53;;;4.72;;
3307;SDS011;1666;48.898;9.182;2023-06-24T01:37:08;5.75;;;4.43;;
3307;SDS011;1666;48.898;9.182;2023-06-24T01:39:46;6.80;;;4.30;;
3307;SDS011;1666;48.898;9.182;2023-06-24T01:42:18;6.38;;;4.85;;
3307;SDS011;1666;48.898;9.182;2023-06-24T01:44:50;9.55;;;4.85;;
3307;SDS011;1666;48.898;9.182;2023-06-24T01:47:26;6.82;;;4.78;;
3307;SDS011;1666;48.898;9.182;2023-06-24T01:49:57;7.47;;;5.50;;
3307;SDS011;1666;48.898;9.182;2023-06-24T01:52:30;6.75;;;5.25;;
3307;SDS011;1666;48.898;9.182;2023-06-24T01:55:03;6.20;;;5.10;;
3307;SDS011;1666;48.898;9.182;2023-06-24T01:57:36;6.40;;;4.60;;
3307;SDS011;1666;48.898;9.182;2023-06-24T02:00:09;5.68;;;5.05;;
3307;SDS011;1666;48.898;9.182;2023-06-24T02:02:44;6.47;;;4.95;;
3307;SDS011;1666;48.898;9.182;2023-06-24T02:05:15;6.68;;;4.55;;
3307;SDS011;1666;48.898;9.182;2023-06-24T02:07:47;6.53;;;4.63;;
3307;SDS011;1666;48.898;9.182;2023-06-24T02:10:19;5.60;;;4.80;;
3307;SDS011;1666;48.898;9.182;2023-06-24T02:12:50;7.38;;;5.05;;
3307;SDS011;1666;48.898;9.182;2023-06-24T02:15:23;7.03;;;5.22;;
3307;SDS011;1666;48.898;9.182;2023-06-24T02:17:56;8.88;;;4.82;;
3307;SDS011;1666;48.898;9.182;2023-06-24T02:20:29;6.93;;;5.00;;
3307;SDS011;1666;48.898;9.182;2023-06-24T02:23:00;6.63;;;5.18;;
3307;SDS011;1666;48.898;9.182;2023-06-24T02:25:31;7.28;;;5.00;;
3307;SDS011;1666;48.898;9.182;2023-06-24T02:28:03;5.20;;;4.60;;
3307;SDS011;1666;48.898;9.182;2023-06-24T02:30:33;7.10;;;5.60;;
3307;SDS011;1666;48.898;9.182;2023-06-24T02:33:07;6.90;;;5.32;;
3307;SDS011;1666;48.898;9.182;2023-06-24T02:35:38;7.03;;;5.93;;
3307;SDS011;1666;48.898;9.182;2023-06-24T02:38:08;6.70;;;5.53;;
3307;SDS011;1666;48.898;9.182;2023-06-24T02:40:38;8.57;;;5.78;;
3307;SDS011;1666;48.898;9.182;2023-06-24T02:43:09;7.63;;;6.00;;
3307;SDS011;1666;48.898;9.182;2023-06-24T02:45:38;9.57;;;5.60;;
3307;SDS011;1666;48.898;9.182;2023-06-24T02:48:11;7.15;;;5.90;;
3307;SDS011;1666;48.898;9.182;2023-06-24T02:50:43;9.25;;;6.20;;
3307;SDS011;1666;48.898;9.182;2023-06-24T02:53:13;10.20;;;6.32;;
3307;SDS011;1666;48.898;9.182;2023-06-24T02:55:44;7.72;;;5.85;;
3307;SDS011;1666;48.898;9.182;2023-06-24T02:58:15;8.52;;;5.80;;
3307;SDS011;1666;48.898;9.182;2023-06-24T03:00:45;6.50;;;5.80;;
3307;SDS011;1666;48.898;9.182;2023-06-24T03:03:19;7.55;;;6.20;;
3307;SDS011;1666;48.898;9.182;2023-06-24T03:05:49;8.80;;;6.93;;
3307;SDS011;1666;48.898;9.182;2023-06-24T03:08:20;10.07;;;6.97;;
3307;SDS011;1666;48.898;9.182;2023-06-24T03:10:50;10.18;;;6.85;;
3307;SDS011;1666;48.898;9.182;2023-06-24T03:13:23;10.40;;;6.65;;
3307;SDS011;1666;48.898;9.182;2023-06-24T03:15:54;8.63;;;6.38;;
3307;SDS011;1666;48.898;9.182;2023-06-24T03:18:26;11.07;;;6.63;;
3307;SDS011;1666;48.898;9.182;2023-06-24T03:20:56;10.40;;;7.32;;
3307;SDS011;1666;48.898;9.182;2023-06-24T03:23:26;8.90;;;6.55;;
3307;SDS011;1666;48.898;9.182;2023-06-24T03:25:56;8.45;;;6.78;;
3307;SDS011;1666;48.898;9.182;2023-06-24T03:28:26;9.40;;;7.50;;
3307;SDS011;1666;48.898;9.182;2023-06-24T03:30:56;7.70;;;6.45;;
3307;SDS011;1666;48.898;9.182;2023-06-24T03:33:31;8.02;;;6.35;;
3307;SDS011;1666;48.898;9.182;2023-06-24T03:36:01;10.27;;;7.13;;
3307;SDS011;1666;48.898;9.182;2023-06-24T03:38:31;7.30;;;6.47;;
3307;SDS011;1666;48.898;9.182;2023-06-24T03:41:01;10.25;;;6.88;;
3307;SDS011;1666;48.898;9.182;2023-06-24T03:43:31;9.85;;;7.05;;
3307;SDS011;1666;48.898;9.182;2023-06-24T03:46:01;7.65;;;6.32;;
3307;SDS011;1666;48.898;9.182;2023-06-24T03:48:34;7.28;;;6.30;;
3307;SDS011;1666;48.898;9.182;2023-06-24T03:51:04;7.15;;;6.03;;
3307;SDS011;1666;48.898;9.182;2023-06-24T03:53:34;8.75;;;6.30;;
3307;SDS011;1666;48.898;9.182;2023-06-24T03:56:04;8.27;;;6.82;;
3307;SDS011;1666;48.898;9.182;2023-06-24T03:58:34;8.43;;;6.00;;
3307;SDS011;1666;48.898;9.182;2023-06-24T04:01:04;9.18;;;6.78;;
3307;SDS011;1666;48.898;9.182;2023-06-24T04:03:38;9.13;;;6.45;;
3307;SDS011;1666;48.898;9.182;2023-06-24T04:06:08;7.03;;;5.97;;
3307;SDS011;1666;48.898;9.182;2023-06-24T04:08:38;8.82;;;6.03;;
3307;SDS011;1666;48.898;9.182;2023-06-24T04:11:10;8.52;;;6.07;;
3307;SDS011;1666;48.898;9.182;2023-06-24T04:13:40;9.93;;;6.32;;
3307;SDS011;1666;48.898;9.182;2023-06-24T04:16:09;6.97;;;5.60;;
3307;SDS011;1666;48.898;9.182;2023-06-24T04:18:42;8.23;;;6.03;;
3307;SDS011;1666;48.898;9.182;2023-06-24T04:21:12;7.47;;;5.75;;
3307;SDS011;1666;48.898;9.182;2023-06-24T04:23:43;9.13;;;6.40;;
3307;SDS011;1666;48.898;9.182;2023-06-24T04:26:13;7.00;;;5.60;;
3307;SDS011;1666;48.898;9.182;2023-06-24T04:28:43;8.13;;;5.43;;
3307;SDS011;1666;48.898;9.182;2023-06-24T04:31:13;8.00;;;5.68;;
3307;SDS011;1666;48.898;9.182;2023-06-24T04:33:46;7.22;;;6.22;;
3307;SDS011;1666;48.898;9.182;2023-06-24T04:36:16;6.75;;;5.78;;
3307;SDS011;1666;48.898;9.182;2023-06-24T04:38:45;7.28;;;5.20;;
3307;SDS011;1666;48.898;9.182;2023-06-24T04:41:15;6.75;;;5.53;;
3307;SDS011;1666;48.898;9.182;2023-06-24T04:43:46;9.82;;;5.82;;
3307;SDS011;1666;48.898;9.182;2023-06-24T04:46:16;7.53;;;5.65;;
3307;SDS011;1666;48.898;9.182;2023-06-24T04:48:48;8.15;;;6.20;;
3307;SDS011;1666;48.898;9.182;2023-06-24T04:51:18;8.38;;;6.35;;
3307;SDS011;1666;48.898;9.182;2023-06-24T04:53:48;7.15;;;6.00;;
3307;SDS011;1666;48.898;9.182;2023-06-24T04:56:18;8.20;;;6.00;;
3307;SDS011;1666;48.898;9.182;2023-06-24T04:58:48;9.27;;;5.75;;
3307;SDS011;1666;48.898;9.182;2023-06-24T05:01:18;6.38;;;5.40;;
3307;SDS011;1666;48.898;9.182;2023-06-24T05:03:51;8.13;;;6.10;;
3307;SDS011;1666;48.898;9.182;2023-06-24T05:06:20;8.27;;;6.65;;
3307;SDS011;1666;48.898;9.182;2023-06-24T05:08:50;7.97;;;6.05;;
3307;SDS011;1666;48.898;9.182;2023-06-24T05:11:20;8.48;;;6.00;;
3307;SDS011;1666;48.898;9.182;2023-06-24T05:13:50;9.60;;;5.55;;
3307;SDS011;1666;48.898;9.182;2023-06-24T05:16:20;7.47;;;5.55;;
3307;SDS011;1666;48.898;9.182;2023-06-24T05:18:53;7.70;;;5.40;;
3307;SDS011;1666;48.898;9.182;2023-06-24T05:21:23;7.82;;;5.53;;
3307;SDS011;1666;48.898;9.182;2023-06-24T05:23:53;7.30;;;5.50;;
3307;SDS011;1666;48.898;9.182;2023-06-24T05:26:23;7.55;;;5.05;;
3307;SDS011;1666;48.898;9.182;2023-06-24T05:28:53;6.18;;;5.25;;
3307;SDS011;1666;48.898;9.182;2023-06-24T05:31:23;7.13;;;5.38;;
3307;SDS011;1666;48.898;9.182;2023-06-24T05:33:55;7.55;;;5.30;;
3307;SDS011;1666;48.898;9.182;2023-06-24T05:36:25;7.93;;;5.70;;
3307;SDS011;1666;48.898;9.182;2023-06-24T05:38:55;7.68;;;5.28;;
3307;SDS011;1666;48.898;9.182;2023-06-24T05:41:25;6.68;;;5.25;;
3307;SDS011;1666;48.898;9.182;2023-06-24T05:44:01;7.32;;;5.47;;
3307;SDS011;1666;48.898;9.182;2023-06-24T05:46:31;6.32;;;5.18;;
3307;SDS011;1666;48.898;9.182;2023-06-24T05:49:03;11.85;;;6.13;;
3307;SDS011;1666;48.898;9.182;2023-06-24T05:51:33;6.28;;;4.95;;
3307;SDS011;1666;48.898;9.182;2023-06-24T05:54:03;6.10;;;5.05;;
3307;SDS011;1666;48.898;9.182;2023-06-24T05:56:34;9.02;;;5.18;;
3307;SDS011;1666;48.898;9.182;2023-06-24T05:59:05;11.98;;;6.35;;
3307;SDS011;1666;48.898;9.182;2023-06-24T06:01:36;7.90;;;5.00;;
3307;SDS011;1666;48.898;9.182;2023-06-24T06:04:08;6.60;;;5.53;;
3307;SDS011;1666;48.898;9.182;2023-06-24T06:06:38;8.18;;;5.65;;
3307;SDS011;1666;48.898;9.182;2023-06-24T06:09:08;7.80;;;5.78;;
3307;SDS011;1666;48.898;9.182;2023-06-24T06:11:38;8.02;;;6.30;;
3307;SDS011;1666;48.898;9.182;2023-06-24T06:14:08;8.85;;;5.90;;
3307;SDS011;1666;48.898;9.182;2023-06-24T06:16:38;8.50;;;5.53;;
3307;SDS011;1666;48.898;9.182;2023-06-24T06:19:10;7.60;;;5.35;;
3307;SDS011;1666;48.898;9.182;2023-06-24T06:21:40;6.43;;;4.80;;
3307;SDS011;1666;48.898;9.182;2023-06-24T06:24:10;7.00;;;5.63;;
3307;SDS011;1666;48.898;9.182;2023-06-24T06:26:41;5.75;;;5.05;;
3307;SDS011;1666;48.898;9.182;2023-06-24T06:29:12;5.25;;;4.68;;
3307;SDS011;1666;48.898;9.182;2023-06-24T06:31:42;5.80;;;5.20;;
3307;SDS011;1666;48.898;9.182;2023-06-24T06:34:14;8.10;;;5.20;;
3307;SDS011;1666;48.898;9.182;2023-06-24T06:36:44;8.15;;;5.03;;
3307;SDS011;1666;48.898;9.182;2023-06-24T06:39:14;6.03;;;4.90;;
3307;SDS011;1666;48.898;9.182;2023-06-24T06:41:44;6.30;;;4.85;;
3307;SDS011;1666;48.898;9.182;2023-06-24T06:44:14;7.80;;;5.22;;
3307;SDS011;1666;48.898;9.182;2023-06-24T06:46:44;7.03;;;4.97;;
3307;SDS011;1666;48.898;9.182;2023-06-24T06:49:17;7.13;;;5.07;;
3307;SDS011;1666;48.898;9.182;2023-06-24T06:51:47;7.28;;;4.45;;
3307;SDS011;1666;48.898;9.182;2023-06-24T06:54:17;5.75;;;4.25;;
3307;SDS011;1666;48.898;9.182;2023-06-24T06:56:46;7.97;;;4.72;;
3307;SDS011;1666;48.898;9.182;2023-06-24T06:59:16;6.57;;;4.63;;
3307;SDS011;1666;48.898;9.182;2023-06-24T07:01:46;7.82;;;4.93;;
3307;SDS011;1666;48.898;9.182;2023-06-24T07:04:19;6.85;;;4.38;;
3307;SDS011;1666;48.898;9.182;2023-06-24T07:06:49;6.10;;;4.72;;
3307;SDS011;1666;48.898;9.182;2023-06-24T07:09:19;5.32;;;4.72;;
3307;SDS011;1666;48.898;9.182;2023-06-24T07:11:49;7.93;;;4.25;;
3307;SDS011;1666;48.898;9.182;2023-06-24T07:14:19;6.25;;;4.65;;
3307;SDS011;1666;48.898;9.182;2023-06-24T07:16:49;6.47;;;4.05;;
3307;SDS011;1666;48.898;9.182;2023-06-24T07:19:21;8.00;;;4.95;;
3307;SDS011;1666;48.898;9.182;2023-06-24T07:21:51;11.15;;;4.82;;
3307;SDS011;1666;48.898;9.182;2023-06-24T07:24:21;5.35;;;4.60;;
3307;SDS011;1666;48.898;9.182;2023-06-24T07:26:51;7.10;;;4.85;;
3307;SDS011;1666;48.898;9.182;2023-06-24T07:29:21;4.82;;;4.07;;
3307;SDS011;1666;48.898;9.182;2023-06-24T07:31:51;5.07;;;4.43;;
3307;SDS011;1666;48.898;9.182;2023-06-24T07:34:23;6.95;;;4.30;;
3307;SDS011;1666;48.898;9.182;2023-06-24T07:36:53;8.68;;;4.50;;
3307;SDS011;1666;48.898;9.182;2023-06-24T07:39:25;6.93;;;4.45;;
3307;SDS011;1666;48.898;9.182;2023-06-24T07:41:55;7.22;;;4.22;;
3307;SDS011;1666;48.898;9.182;2023-06-24T07:44:25;4.53;;;4.00;;
3307;SDS011;1666;48.898;9.182;2023-06-24T07:46:54;5.03;;;4.18;;
3307;SDS011;1666;48.898;9.182;2023-06-24T07:49:27;4.82;;;3.83;;
3307;SDS011;1666;48.898;9.182;2023-06-24T07:51:57;7.47;;;4.05;;
3307;SDS011;1666;48.898;9.182;2023-06-24T07:54:27;4.70;;;4.20;;
3307;SDS011;1666;48.898;9.182;2023-06-24T07:56:57;4.78;;;3.97;;
3307;SDS011;1666;48.898;9.182;2023-06-24T07:59:27;7.60;;;4.40;;
3307;SDS011;1666;48.898;9.182;2023-06-24T08:01:57;4.88;;;4.20;;
3307;SDS011;1666;48.898;9.182;2023-06-24T08:04:29;4.90;;;4.07;;
3307;SDS011;1666;48.898;9.182;2023-06-24T08:07:00;5.53;;;3.50;;
3307;SDS011;1666;48.898;9.182;2023-06-24T08:09:31;5.85;;;3.70;;
3307;SDS011;1666;48.898;9.182;2023-06-24T08:12:02;5.55;;;4.20;;
3307;SDS011;1666;48.898;9.182;2023-06-24T08:14:32;5.82;;;4.20;;
3307;SDS011;1666;48.898;9.182;2023-06-24T08:17:02;7.43;;;3.90;;
3307;SDS011;1666;48.898;9.182;2023-06-24T08:19:35;3.70;;;3.40;;
3307;SDS011;1666;48.898;9.182;2023-06-24T08:22:05;6.03;;;3.50;;
3307;SDS011;1666;48.898;9.182;2023-06-24T08:24:35;5.50;;;3.30;;
3307;SDS011;1666;48.898;9.182;2023-06-24T08:27:06;3.63;;;2.95;;
3307;SDS011;1666;48.898;9.182;2023-06-24T08:29:36;4.88;;;3.30;;
3307;SDS011;1666;48.898;9.182;2023-06-24T08:32:07;4.10;;;3.70;;
3307;SDS011;1666;48.898;9.182;2023-06-24T08:34:39;3.45;;;3.08;;
3307;SDS011;1666;48.898;9.182;2023-06-24T08:37:09;3.63;;;3.25;;
3307;SDS011;1666;48.898;9.182;2023-06-24T08:39:39;3.80;;;3.25;;
3307;SDS011;1666;48.898;9.182;2023-06-24T08:42:09;6.03;;;3.53;;
3307;SDS011;1666;48.898;9.182;2023-06-24T08:44:39;4.25;;;3.38;;
3307;SDS011;1666;48.898;9.182;2023-06-24T08:47:09;3.75;;;3.20;;
3307;SDS011;1666;48.898;9.182;2023-06-24T08:49:46;4.18;;;3.45;;
3307;SDS011;1666;48.898;9.182;2023-06-24T08:52:19;3.33;;;2.80;;
3307;SDS011;1666;48.898;9.182;2023-06-24T08:54:50;4.82;;;3.00;;
3307;SDS011;1666;48.898;9.182;2023-06-24T08:57:21;4.25;;;2.97;;
3307;SDS011;1666;48.898;9.182;2023-06-24T08:59:51;3.70;;;2.83;;
3307;SDS011;1666;48.898;9.182;2023-06-24T09:02:21;5.05;;;4.43;;
3307;SDS011;1666;48.898;9.182;2023-06-24T09:04:54;3.90;;;3.50;;
3307;SDS011;1666;48.898;9.182;2023-06-24T09:07:27;4.80;;;2.97;;
3307;SDS011;1666;48.898;9.182;2023-06-24T09:09:57;4.93;;;2.88;;
3307;SDS011;1666;48.898;9.182;2023-06-24T09:12:27;3.80;;;2.33;;
3307;SDS011;1666;48.898;9.182;2023-06-24T09:15:00;2.40;;;2.20;;
3307;SDS011;1666;48.898;9.182;2023-06-24T09:17:31;4.38;;;3.10;;
3307;SDS011;1666;48.898;9.182;2023-06-24T09:20:08;5.32;;;3.13;;
3307;SDS011;1666;48.898;9.182;2023-06-24T09:22:39;4.10;;;3.10;;
3307;SDS011;1666;48.898;9.182;2023-06-24T09:25:13;3.90;;;2.80;;
3307;SDS011;1666;48.898;9.182;2023-06-24T09:27:48;5.10;;;2.90;;
3307;SDS011;1666;48.898;9.182;2023-06-24T09:30:19;3.90;;;2.88;;
3307;SDS011;1666;48.898;9.182;2023-06-24T09:32:51;3.38;;;2.78;;
3307;SDS011;1666;48.898;9.182;2023-06-24T09:35:25;5.00;;;2.92;;
3307;SDS011;1666;48.898;9.182;2023-06-24T09:37:56;3.45;;;2.75;;
3307;SDS011;1666;48.898;9.182;2023-06-24T09:40:26;4.05;;;2.83;;
3307;SDS011;1666;48.898;9.182;2023-06-24T09:42:56;4.45;;;3.15;;
3307;SDS011;1666;48.898;9.182;2023-06-24T09:45:27;3.15;;;2.60;;
3307;SDS011;1666;48.898;9.182;2023-06-24T09:47:58;4.47;;;3.13;;
3307;SDS011;1666;48.898;9.182;2023-06-24T09:50:32;6.82;;;3.15;;
3307;SDS011;1666;48.898;9.182;2023-06-24T09:53:03;3.38;;;2.83;;
3307;SDS011;1666;48.898;9.182;2023-06-24T09:55:34;3.78;;;2.63;;
3307;SDS011;1666;48.898;9.182;2023-06-24T09:58:10;3.95;;;2.70;;
3307;SDS011;1666;48.898;9.182;2023-06-24T10:00:40;5.35;;;2.40;;
3307;SDS011;1666;48.898;9.182;2023-06-24T10:03:11;5.45;;;3.00;;
3307;SDS011;1666;48.898;9.182;2023-06-24T10:05:44;5.72;;;3.00;;
3307;SDS011;1666;48.898;9.182;2023-06-24T10:08:14;3.22;;;2.70;;
3307;SDS011;1666;48.898;9.182;2023-06-24T10:10:44;3.40;;;2.40;;
3307;SDS011;1666;48.898;9.182;2023-06-24T10:13:14;3.05;;;2.30;;
3307;SDS011;1666;48.898;9.182;2023-06-24T10:15:45;3.40;;;2.40;;
3307;SDS011;1666;48.898;9.182;2023-06-24T10:21:07;3.40;;;2.40;;
3307;SDS011;1666;48.898;9.182;2023-06-24T10:23:41;5.68;;;2.70;;
3307;SDS011;1666;48.898;9.182;2023-06-24T10:26:23;4.38;;;2.63;;
3307;SDS011;1666;48.898;9.182;2023-06-24T10:29:10;3.03;;;2.38;;
3307;SDS011;1666;48.898;9.182;2023-06-24T10:31:53;3.67;;;2.53;;
3307;SDS011;1666;48.898;9.182;2023-06-24T10:37:13;2.75;;;2.50;;
3307;SDS011;1666;48.898;9.182;2023-06-24T10:39:48;4.40;;;2.50;;
3307;SDS011;1666;48.898;9.182;2023-06-24T10:45:14;2.75;;;2.40;;
3307;SDS011;1666;48.898;9.182;2023-06-24T10:47:49;3.65;;;2.30;;
3307;SDS011;1666;48.898;9.182;2023-06-24T10:50:20;2.72;;;1.92;;
3307;SDS011;1666;48.898;9.182;2023-06-24T10:52:53;3.45;;;2.47;;
3307;SDS011;1666;48.898;9.182;2023-06-24T10:55:24;2.53;;;2.10;;
3307;SDS011;1666;48.898;9.182;2023-06-24T10:57:54;2.50;;;2.20;;
3307;SDS011;1666;48.898;9.182;2023-06-24T11:00:38;2.70;;;2.25;;
3307;SDS011;1666;48.898;9.182;2023-06-24T11:03:08;3.97;;;2.60;;
3307;SDS011;1666;48.898;9.182;2023-06-24T11:05:39;4.38;;;2.72;;
3307;SDS011;1666;48.898;9.182;2023-06-24T11:08:12;3.80;;;2.67;;
3307;SDS011;1666;48.898;9.182;2023-06-24T11:10:43;2.95;;;2.53;;
3307;SDS011;1666;48.898;9.182;2023-06-24T11:13:13;3.00;;;2.70;;
3307;SDS011;1666;48.898;9.182;2023-06-24T11:15:43;3.22;;;2.58;;
3307;SDS011;1666;48.898;9.182;2023-06-24T11:18:13;3.10;;;2.40;;
3307;SDS011;1666;48.898;9.182;2023-06-24T11:20:43;2.60;;;2.20;;
3307;SDS011;1666;48.898;9.182;2023-06-24T11:23:16;3.42;;;2.65;;
3307;SDS011;1666;48.898;9.182;2023-06-24T11:25:46;3.88;;;2.20;;
3307;SDS011;1666;48.898;9.182;2023-06-24T11:28:16;3.42;;;2.40;;
3307;SDS011;1666;48.898;9.182;2023-06-24T11:30:49;3.33;;;2.50;;
3307;SDS011;1666;48.898;9.182;2023-06-24T11:33:26;2.90;;;2.60;;
3307;SDS011;1666;48.898;9.182;2023-06-24T11:35:56;4.00;;;2.70;;
3307;SDS011;1666;48.898;9.182;2023-06-24T11:38:30;4.45;;;2.65;;
3307;SDS011;1666;48.898;9.182;2023-06-24T11:41:00;3.22;;;2.63;;
3307;SDS011;1666;48.898;9.182;2023-06-24T11:43:30;3.97;;;2.58;;
3307;SDS011;1666;48.898;9.182;2023-06-24T11:46:00;2.53;;;2.33;;
3307;SDS011;1666;48.898;9.182;2023-06-24T11:48:30;4.07;;;2.33;;
3307;SDS011;1666;48.898;9.182;2023-06-24T11:51:11;2.80;;;2.53;;
3307;SDS011;1666;48.898;9.182;2023-06-24T11:53:44;3.83;;;2.95;;
3307;SDS011;1666;48.898;9.182;2023-06-24T11:56:15;3.25;;;2.55;;
3307;SDS011;1666;48.898;9.182;2023-06-24T11:58:47;2.90;;;2.38;;
3307;SDS011;1666;48.898;9.182;2023-06-24T12:01:18;2.83;;;2.55;;
3307;SDS011;1666;48.898;9.182;2023-06-24T12:03:48;3.35;;;2.55;;
3307;SDS011;1666;48.898;9.182;2023-06-24T12:06:20;2.50;;;2.30;;
3307;SDS011;1666;48.898;9.182;2023-06-24T12:08:52;3.10;;;2.40;;
3307;SDS011;1666;48.898;9.182;2023-06-24T12:11:22;3.20;;;2.50;;
3307;SDS011;1666;48.898;9.182;2023-06-24T12:13:52;2.70;;;2.40;;
3307;SDS011;1666;48.898;9.182;2023-06-24T12:16:22;3.25;;;2.60;;
3307;SDS011;1666;48.898;9.182;2023-06-24T12:18:53;2.60;;;2.40;;
3307;SDS011;1666;48.898;9.182;2023-06-24T12:21:23;2.83;;;2.30;;
3307;SDS011;1666;48.898;9.182;2023-06-24T12:23:55;3.65;;;2.22;;
3307;SDS011;1666;48.898;9.182;2023-06-24T12:26:25;2.95;;;2.38;;
3307;SDS011;1666;48.898;9.182;2023-06-24T12:28:55;2.33;;;1.95;;
3307;SDS011;1666;48.898;9.182;2023-06-24T12:31:25;3.20;;;2.63;;
3307;SDS011;1666;48.898;9.182;2023-06-24T12:33:55;2.60;;;2.40;;
3307;SDS011;1666;48.898;9.182;2023-06-24T12:36:25;3.70;;;2.35;;
3307;SDS011;1666;48.898;9.182;2023-06-24T12:38:58;3.47;;;2.60;;
3307;SDS011;1666;48.898;9.182;2023-06-24T12:41:29;4.32;;;2.70;;
3307;SDS011;1666;48.898;9.182;2023-06-24T12:43:59;2.80;;;2.60;;
3307;SDS011;1666;48.898;9.182;2023-06-24T12:46:29;3.22;;;2.80;;
3307;SDS011;1666;48.898;9.182;2023-06-24T12:48:59;3.33;;;2.15;;
3307;SDS011;1666;48.898;9.182;2023-06-24T12:51:30;3.38;;;2.33;;
3307;SDS011;1666;48.898;9.182;2023-06-24T12:54:02;2.80;;;2.28;;
3307;SDS011;1666;48.898;9.182;2023-06-24T12:56:32;3.50;;;2.40;;
3307;SDS011;1666;48.898;9.182;2023-06-24T12:59:02;3.00;;;2.40;;
3307;SDS011;1666;48.898;9.182;2023-06-24T13:01:32;3.70;;;2.70;;
3307;SDS011;1666;48.898;9.182;2023-06-24T13:04:03;4.32;;;2.17;;
3307;SDS011;1666;48.898;9.182;2023-06-24T13:06:33;4.57;;;2.50;;
3307;SDS011;1666;48.898;9.182;2023-06-24T13:09:05;2.80;;;2.20;;
3307;SDS011;1666;48.898;9.182;2023-06-24T13:11:35;3.28;;;2.33;;
3307;SDS011;1666;48.898;9.182;2023-06-24T13:14:06;2.70;;;2.38;;
3307;SDS011;1666;48.898;9.182;2023-06-24T13:16:36;2.45;;;2.25;;
3307;SDS011;1666;48.898;9.182;2023-06-24T13:19:06;2.92;;;2.40;;
3307;SDS011;1666;48.898;9.182;2023-06-24T13:21:36;5.22;;;2.40;;
3307;SDS011;1666;48.898;9.182;2023-06-24T13:24:09;2.50;;;2.30;;
3307;SDS011;1666;48.898;9.182;2023-06-24T13:26:39;2.50;;;2.20;;
3307;SDS011;1666;48.898;9.182;2023-06-24T13:29:09;3.15;;;2.65;;
3307;SDS011;1666;48.898;9.182;2023-06-24T13:31:39;10.73;;;4.43;;
3307;SDS011;1666;48.898;9.182;2023-06-24T13:34:09;2.67;;;2.35;;
3307;SDS011;1666;48.898;9.182;2023-06-24T13:36:39;2.40;;;2.10;;
3307;SDS011;1666;48.898;9.182;2023-06-24T13:39:12;3.60;;;2.70;;
3307;SDS011;1666;48.898;9.182;2023-06-24T13:41:44;3.13;;;2.40;;
3307;SDS011;1666;48.898;9.182;2023-06-24T13:44:14;2.80;;;2.45;;
3307;SDS011;1666;48.898;9.182;2023-06-24T13:46:44;9.45;;;2.92;;
3307;SDS011;1666;48.898;9.182;2023-06-24T13:49:14;4.75;;;2.50;;
3307;SDS011;1666;48.898;9.182;2023-06-24T13:51:45;3.20;;;2.55;;
3307;SDS011;1666;48.898;9.182;2023-06-24T13:54:17;2.80;;;2.20;;
3307;SDS011;1666;48.898;9.182;2023-06-24T13:56:47;3.05;;;2.30;;
3307;SDS011;1666;48.898;9.182;2023-06-24T13:59:17;3.55;;;2.53;;
3307;SDS011;1666;48.898;9.182;2023-06-24T14:01:47;2.83;;;2.50;;
3307;SDS011;1666;48.898;9.182;2023-06-24T14:04:20;3.23;;;2.37;;
3307;SDS011;1666;48.898;9.182;2023-06-24T14:06:50;3.08;;;2.78;;
3307;SDS011;1666;48.898;9.182;2023-06-24T14:09:22;3.53;;;2.30;;
3307;SDS011;1666;48.898;9.182;2023-06-24T14:11:52;3.05;;;2.58;;
3307;SDS011;1666;48.898;9.182;2023-06-24T14:14:22;3.33;;;2.75;;
3307;SDS011;1666;48.898;9.182;2023-06-24T14:16:52;3.03;;;2.58;;
3307;SDS011;1666;48.898;9.182;2023-06-24T14:19:22;3.08;;;2.45;;
3307;SDS011;1666;48.898;9.182;2023-06-24T14:21:52;3.25;;;2.50;;
3307;SDS011;1666;48.898;9.182;2023-06-24T14:24:24;3.97;;;2.65;;
3307;SDS011;1666;48.898;9.182;2023-06-24T14:26:54;2.67;;;2.40;;
3307;SDS011;1666;48.898;9.182;2023-06-24T14:29:24;3.95;;;2.75;;
3307;SDS011;1666;48.898;9.182;2023-06-24T14:31:54;2.97;;;2.38;;
3307;SDS011;1666;48.898;9.182;2023-06-24T14:34:24;2.85;;;2.40;;
3307;SDS011;1666;48.898;9.182;2023-06-24T14:36:56;2.70;;;2.38;;
3307;SDS011;1666;48.898;9.182;2023-06-24T14:39:28;3.72;;;2.80;;
3307;SDS011;1666;48.898;9.182;2023-06-24T14:41:58;3.10;;;2.70;;
3307;SDS011;1666;48.898;9.182;2023-06-24T14:44:28;4.07;;;2.78;;
3307;SDS011;1666;48.898;9.182;2023-06-24T14:46:58;3.17;;;2.40;;
3307;SDS011;1666;48.898;9.182;2023-06-24T14:49:28;3.97;;;2.47;;
3307;SDS011;1666;48.898;9.182;2023-06-24T14:51:59;3.20;;;2.70;;
3307;SDS011;1666;48.898;9.182;2023-06-24T14:54:31;2.90;;;2.22;;
3307;SDS011;1666;48.898;9.182;2023-06-24T14:57:01;3.78;;;2.55;;
3307;SDS011;1666;48.898;9.182;2023-06-24T14:59:31;2.67;;;2.35;;
3307;SDS011;1666;48.898;9.182;2023-06-24T15:02:01;3.40;;;2.40;;
3307;SDS011;1666;48.898;9.182;2023-06-24T15:04:32;4.05;;;2.80;;
3307;SDS011;1666;48.898;9.182;2023-06-24T15:07:02;3.05;;;2.75;;
3307;SDS011;1666;48.898;9.182;2023-06-24T15:09:35;2.80;;;2.50;;
3307;SDS011;1666;48.898;9.182;2023-06-24T15:12:05;3.10;;;2.78;;
3307;SDS011;1666;48.898;9.182;2023-06-24T15:14:36;2.60;;;2.40;;
3307;SDS011;1666;48.898;9.182;2023-06-24T15:17:06;3.25;;;2.60;;
3307;SDS011;1666;48.898;9.182;2023-06-24T15:19:36;3.58;;;2.50;;
3307;SDS011;1666;48.898;9.182;2023-06-24T15:22:05;3.35;;;2.85;;
3307;SDS011;1666;48.898;9.182;2023-06-24T15:24:39;2.85;;;2.42;;
3307;SDS011;1666;48.898;9.182;2023-06-24T15:27:11;5.35;;;2.58;;
3307;SDS011;1666;48.898;9.182;2023-06-24T15:29:41;2.85;;;2.50;;
3307;SDS011;1666;48.898;9.182;2023-06-24T15:32:11;3.15;;;2.65;;
3307;SDS011;1666;48.898;9.182;2023-06-24T15:34:41;3.30;;;2.33;;
3307;SDS011;1666;48.898;9.182;2023-06-24T15:37:11;3.03;;;2.50;;
3307;SDS011;1666;48.898;9.182;2023-06-24T15:39:44;2.65;;;2.45;;
3307;SDS011;1666;48.898;9.182;2023-06-24T15:42:13;3.10;;;2.50;;
3307;SDS011;1666;48.898;9.182;2023-06-24T15:44:43;3.28;;;2.50;;
3307;SDS011;1666;48.898;9.182;2023-06-24T15:47:13;3.10;;;2.00;;
3307;SDS011;1666;48.898;9.182;2023-06-24T15:49:44;2.40;;;2.20;;
3307;SDS011;1666;48.898;9.182;2023-06-24T15:52:14;2.65;;;2.20;;